sensor_id;sensor_type;location;lat;lon;timestamp;pressure;altitude;pressure_sealevel;temperature;humidity
53858;BME280;39763;51.188;6.690;2023-02-18T00:00:17;101942.13;;;13.96;74.05
53858;BME280;39763;51.188;6.690;2023-02-18T00:01:49;101938.78;;;13.91;74.07
53858;BME280;39763;51.188;6.690;2023-02-18T00:03:21;101939.63;;;13.91;74.68
53858;BME280;39763;51.188;6.690;2023-02-18T00:04:54;101936.06;;;13.94;74.10
53858;BME280;39763;51.188;6.690;2023-02-18T00:06:26;101941.38;;;13.92;74.48
53858;BME280;39763;51.188;6.690;2023-02-18T00:07:58;101939.44;;;13.97;74.26
53858;BME280;39763;51.188;6.690;2023-02-18T00:09:30;101938.69;;;13.94;74.19
53858;BME280;39763;51.188;6.690;2023-02-18T00:11:03;101927.34;;;13.90;74.33
53858;BME280;39763;51.188;6.690;2023-02-18T00:12:35;101928.06;;;13.95;74.09
53858;BME280;39763;51.188;6.690;2023-02-18T00:14:09;101932.38;;;13.98;74.02
53858;BME280;39763;51.188;6.690;2023-02-18T00:15:41;101928.84;;;13.99;73.86
53858;BME280;39763;51.188;6.690;2023-02-18T00:17:13;101932.50;;;13.95;74.03
53858;BME280;39763;51.188;6.690;2023-02-18T00:18:44;101929.94;;;13.92;74.72
53858;BME280;39763;51.188;6.690;2023-02-18T00:20:18;101926.28;;;13.96;74.30
53858;BME280;39763;51.188;6.690;2023-02-18T00:21:49;101929.84;;;13.95;74.04
53858;BME280;39763;51.188;6.690;2023-02-18T00:23:21;101920.97;;;13.97;74.14
53858;BME280;39763;51.188;6.690;2023-02-18T00:24:52;101927.97;;;13.98;74.07
53858;BME280;39763;51.188;6.690;2023-02-18T00:26:24;101918.31;;;13.97;74.13
53858;BME280;39763;51.188;6.690;2023-02-18T00:27:56;101923.63;;;13.96;74.19
53858;BME280;39763;51.188;6.690;2023-02-18T00:29:27;101919.28;;;13.95;74.28
53858;BME280;39763;51.188;6.690;2023-02-18T00:30:59;101910.63;;;13.90;74.42
53858;BME280;39763;51.188;6.690;2023-02-18T00:32:31;101901.91;;;13.86;74.99
53858;BME280;39763;51.188;6.690;2023-02-18T00:34:04;101901.09;;;13.84;74.84
53858;BME280;39763;51.188;6.690;2023-02-18T00:35:36;101909.09;;;13.81;75.20
53858;BME280;39763;51.188;6.690;2023-02-18T00:37:08;101904.78;;;13.79;75.29
53858;BME280;39763;51.188;6.690;2023-02-18T00:38:42;101899.22;;;13.88;75.05
53858;BME280;39763;51.188;6.690;2023-02-18T00:40:14;101897.53;;;13.85;74.75
53858;BME280;39763;51.188;6.690;2023-02-18T00:41:46;101905.47;;;13.85;74.73
53858;BME280;39763;51.188;6.690;2023-02-18T00:43:18;101896.66;;;13.85;74.77
53858;BME280;39763;51.188;6.690;2023-02-18T00:44:50;101901.03;;;13.86;74.91
53858;BME280;39763;51.188;6.690;2023-02-18T00:46:22;101905.41;;;13.87;75.56
53858;BME280;39763;51.188;6.690;2023-02-18T00:47:56;101902.69;;;13.90;75.21
53858;BME280;39763;51.188;6.690;2023-02-18T00:49:28;101913.25;;;13.90;74.68
53858;BME280;39763;51.188;6.690;2023-02-18T00:51:01;101909.75;;;13.89;75.05
53858;BME280;39763;51.188;6.690;2023-02-18T00:52:33;101901.84;;;13.89;75.05
53858;BME280;39763;51.188;6.690;2023-02-18T00:54:05;101898.47;;;13.83;75.14
53858;BME280;39763;51.188;6.690;2023-02-18T00:55:37;101896.66;;;13.85;75.35
53858;BME280;39763;51.188;6.690;2023-02-18T00:57:09;101894.94;;;13.84;75.06
53858;BME280;39763;51.188;6.690;2023-02-18T00:58:40;101887.84;;;13.86;75.02
53858;BME280;39763;51.188;6.690;2023-02-18T01:00:12;101889.72;;;13.81;75.45
53858;BME280;39763;51.188;6.690;2023-02-18T01:01:44;101888.78;;;13.83;74.94
53858;BME280;39763;51.188;6.690;2023-02-18T01:03:16;101884.41;;;13.82;74.96
53858;BME280;39763;51.188;6.690;2023-02-18T01:04:48;101882.69;;;13.81;75.31
53858;BME280;39763;51.188;6.690;2023-02-18T01:06:22;101873.97;;;13.79;75.30
53858;BME280;39763;51.188;6.690;2023-02-18T01:07:54;101876.66;;;13.77;75.21
53858;BME280;39763;51.188;6.690;2023-02-18T01:09:25;101871.44;;;13.74;75.27
53858;BME280;39763;51.188;6.690;2023-02-18T01:10:57;101882.03;;;13.73;75.70
53858;BME280;39763;51.188;6.690;2023-02-18T01:12:29;101874.94;;;13.75;75.51
53858;BME280;39763;51.188;6.690;2023-02-18T01:14:01;101878.50;;;13.74;75.61
53858;BME280;39763;51.188;6.690;2023-02-18T01:15:33;101876.75;;;13.73;75.44
53858;BME280;39763;51.188;6.690;2023-02-18T01:17:04;101872.31;;;13.75;75.31
53858;BME280;39763;51.188;6.690;2023-02-18T01:18:36;101872.34;;;13.73;75.48
53858;BME280;39763;51.188;6.690;2023-02-18T01:20:09;101873.25;;;13.72;75.20
53858;BME280;39763;51.188;6.690;2023-02-18T01:21:42;101873.34;;;13.69;75.46
53858;BME280;39763;51.188;6.690;2023-02-18T01:23:14;101872.47;;;13.69;75.96
53858;BME280;39763;51.188;6.690;2023-02-18T01:24:45;101871.59;;;13.68;75.61
53858;BME280;39763;51.188;6.690;2023-02-18T01:26:17;101870.78;;;13.66;75.13
53858;BME280;39763;51.188;6.690;2023-02-18T01:27:48;101879.72;;;13.62;75.53
53858;BME280;39763;51.188;6.690;2023-02-18T01:29:20;101866.56;;;13.61;75.63
53858;BME280;39763;51.188;6.690;2023-02-18T01:30:52;101875.38;;;13.60;76.01
53858;BME280;39763;51.188;6.690;2023-02-18T01:32:24;101874.63;;;13.55;75.88
53858;BME280;39763;51.188;6.690;2023-02-18T01:33:55;101876.47;;;13.51;75.89
53858;BME280;39763;51.188;6.690;2023-02-18T01:35:27;101872.16;;;13.49;76.51
53858;BME280;39763;51.188;6.690;2023-02-18T01:37:00;101870.31;;;13.51;76.05
53858;BME280;39763;51.188;6.690;2023-02-18T01:38:32;101863.41;;;13.47;76.71
53858;BME280;39763;51.188;6.690;2023-02-18T01:40:05;101861.69;;;13.46;76.99
53858;BME280;39763;51.188;6.690;2023-02-18T01:41:36;101858.19;;;13.45;76.91
53858;BME280;39763;51.188;6.690;2023-02-18T01:43:08;101848.53;;;13.44;76.87
53858;BME280;39763;51.188;6.690;2023-02-18T01:44:40;101849.31;;;13.48;77.01
53858;BME280;39763;51.188;6.690;2023-02-18T01:46:13;101848.44;;;13.47;76.86
53858;BME280;39763;51.188;6.690;2023-02-18T01:47:48;101845.78;;;13.49;76.91
53858;BME280;39763;51.188;6.690;2023-02-18T01:49:21;101848.53;;;13.44;77.03
53858;BME280;39763;51.188;6.690;2023-02-18T01:50:55;101833.72;;;13.38;77.05
53858;BME280;39763;51.188;6.690;2023-02-18T01:52:28;101838.25;;;13.35;77.57
53858;BME280;39763;51.188;6.690;2023-02-18T01:54:04;101838.34;;;13.30;77.42
53858;BME280;39763;51.188;6.690;2023-02-18T01:55:37;101843.66;;;13.29;78.13
53858;BME280;39763;51.188;6.690;2023-02-18T01:57:10;101848.06;;;13.28;77.83
53858;BME280;39763;51.188;6.690;2023-02-18T01:58:43;101828.78;;;13.26;78.42
53858;BME280;39763;51.188;6.690;2023-02-18T02:00:15;101832.25;;;13.28;78.63
53858;BME280;39763;51.188;6.690;2023-02-18T02:01:51;101826.19;;;13.25;78.68
53858;BME280;39763;51.188;6.690;2023-02-18T02:03:24;101834.00;;;13.28;78.68
53858;BME280;39763;51.188;6.690;2023-02-18T02:04:56;101822.63;;;13.26;78.66
53858;BME280;39763;51.188;6.690;2023-02-18T02:06:27;101827.91;;;13.26;78.92
53858;BME280;39763;51.188;6.690;2023-02-18T02:08:00;101830.66;;;13.21;79.68
53858;BME280;39763;51.188;6.690;2023-02-18T02:09:33;101835.06;;;13.21;79.45
53858;BME280;39763;51.188;6.690;2023-02-18T02:11:07;101825.50;;;13.18;80.26
53858;BME280;39763;51.188;6.690;2023-02-18T02:12:46;101827.38;;;13.12;80.36
53858;BME280;39763;51.188;6.690;2023-02-18T02:14:28;101831.88;;;13.06;81.00
53858;BME280;39763;51.188;6.690;2023-02-18T02:16:05;101824.16;;;13.00;81.04
53858;BME280;39763;51.188;6.690;2023-02-18T02:17:42;101826.00;;;12.97;81.93
53858;BME280;39763;51.188;6.690;2023-02-18T02:19:28;101827.84;;;12.93;82.36
53858;BME280;39763;51.188;6.690;2023-02-18T02:25:01;101815.72;;;12.86;82.83
53858;BME280;39763;51.188;6.690;2023-02-18T02:28:48;101808.75;;;12.84;84.08
53858;BME280;39763;51.188;6.690;2023-02-18T02:30:46;101796.47;;;12.83;84.22
53858;BME280;39763;51.188;6.690;2023-02-18T02:34:23;101797.44;;;12.79;84.56
53858;BME280;39763;51.188;6.690;2023-02-18T02:35:59;101795.78;;;12.76;85.07
53858;BME280;39763;51.188;6.690;2023-02-18T02:37:34;101789.72;;;12.73;85.04
53858;BME280;39763;51.188;6.690;2023-02-18T02:39:10;101781.81;;;12.73;85.46
53858;BME280;39763;51.188;6.690;2023-02-18T02:40:45;101784.25;;;12.80;85.08
53858;BME280;39763;51.188;6.690;2023-02-18T02:42:18;101779.72;;;12.85;84.92
53858;BME280;39763;51.188;6.690;2023-02-18T02:43:55;101787.59;;;12.87;84.84
53858;BME280;39763;51.188;6.690;2023-02-18T02:45:34;101788.47;;;12.87;85.00
53858;BME280;39763;51.188;6.690;2023-02-18T02:47:10;101788.31;;;12.92;85.05
53858;BME280;39763;51.188;6.690;2023-02-18T02:48:45;101776.00;;;12.92;85.27
53858;BME280;39763;51.188;6.690;2023-02-18T02:50:24;101783.00;;;12.93;84.22
53858;BME280;39763;51.188;6.690;2023-02-18T02:51:59;101782.06;;;12.96;84.49
53858;BME280;39763;51.188;6.690;2023-02-18T02:53:34;101782.09;;;12.94;84.36
53858;BME280;39763;51.188;6.690;2023-02-18T02:55:07;101775.91;;;12.97;84.88
53858;BME280;39763;51.188;6.690;2023-02-18T02:56:42;101774.91;;;13.01;84.55
53858;BME280;39763;51.188;6.690;2023-02-18T02:58:15;101780.88;;;13.07;83.84
53858;BME280;39763;51.188;6.690;2023-02-18T02:59:48;101775.56;;;13.09;83.38
53858;BME280;39763;51.188;6.690;2023-02-18T03:01:26;101774.81;;;13.05;83.73
53858;BME280;39763;51.188;6.690;2023-02-18T03:03:16;101771.31;;;13.05;83.74
53858;BME280;39763;51.188;6.690;2023-02-18T03:04:59;101773.16;;;13.01;83.62
53858;BME280;39763;51.188;6.690;2023-02-18T03:06:42;101775.59;;;13.07;83.86
53858;BME280;39763;51.188;6.690;2023-02-18T03:08:19;101765.84;;;13.11;82.96
53858;BME280;39763;51.188;6.690;2023-02-18T03:09:58;101767.53;;;13.14;83.27
53858;BME280;39763;51.188;6.690;2023-02-18T03:11:36;101762.25;;;13.14;82.81
53858;BME280;39763;51.188;6.690;2023-02-18T03:13:14;101756.19;;;13.10;82.69
53858;BME280;39763;51.188;6.690;2023-02-18T03:14:52;101754.47;;;13.09;82.51
53858;BME280;39763;51.188;6.690;2023-02-18T03:16:26;101754.50;;;13.07;83.22
53858;BME280;39763;51.188;6.690;2023-02-18T03:17:59;101751.88;;;13.07;83.24
53858;BME280;39763;51.188;6.690;2023-02-18T03:19:34;101756.25;;;13.08;82.68
53858;BME280;39763;51.188;6.690;2023-02-18T03:21:07;101747.50;;;13.06;82.80
53858;BME280;39763;51.188;6.690;2023-02-18T03:22:43;101755.47;;;13.05;83.09
53858;BME280;39763;51.188;6.690;2023-02-18T03:24:18;101758.16;;;13.03;83.30
53858;BME280;39763;51.188;6.690;2023-02-18T03:25:51;101742.19;;;13.08;83.89
53858;BME280;39763;51.188;6.690;2023-02-18T03:27:24;101754.50;;;13.07;83.03
53858;BME280;39763;51.188;6.690;2023-02-18T03:28:58;101743.06;;;13.08;83.67
53858;BME280;39763;51.188;6.690;2023-02-18T03:30:33;101747.47;;;13.08;83.30
53858;BME280;39763;51.188;6.690;2023-02-18T03:32:07;101744.94;;;13.05;83.77
53858;BME280;39763;51.188;6.690;2023-02-18T03:33:42;101744.13;;;13.01;83.46
53858;BME280;39763;51.188;6.690;2023-02-18T03:35:15;101745.94;;;12.99;84.43
53858;BME280;39763;51.188;6.690;2023-02-18T03:36:47;101753.00;;;12.99;84.03
53858;BME280;39763;51.188;6.690;2023-02-18T03:38:22;101749.50;;;12.98;84.35
53858;BME280;39763;51.188;6.690;2023-02-18T03:39:55;101744.25;;;12.97;84.75
53858;BME280;39763;51.188;6.690;2023-02-18T03:41:30;101745.16;;;12.96;84.82
53858;BME280;39763;51.188;6.690;2023-02-18T03:43:03;101737.25;;;12.96;84.71
53858;BME280;39763;51.188;6.690;2023-02-18T03:44:35;101731.16;;;12.94;85.04
53858;BME280;39763;51.188;6.690;2023-02-18T03:46:07;101731.25;;;12.91;85.04
53858;BME280;39763;51.188;6.690;2023-02-18T03:47:39;101732.28;;;12.85;85.03
53858;BME280;39763;51.188;6.690;2023-02-18T03:49:11;101727.06;;;12.82;85.42
53858;BME280;39763;51.188;6.690;2023-02-18T03:50:43;101723.56;;;12.82;86.44
53858;BME280;39763;51.188;6.690;2023-02-18T03:52:15;101719.28;;;12.78;86.63
53858;BME280;39763;51.188;6.690;2023-02-18T03:53:48;101723.78;;;12.74;86.88
53858;BME280;39763;51.188;6.690;2023-02-18T03:55:20;101713.31;;;12.71;87.10
53858;BME280;39763;51.188;6.690;2023-02-18T03:56:51;101713.34;;;12.69;87.58
53858;BME280;39763;51.188;6.690;2023-02-18T03:58:23;101707.28;;;12.66;87.30
53858;BME280;39763;51.188;6.690;2023-02-18T03:59:55;101704.72;;;12.63;87.05
53858;BME280;39763;51.188;6.690;2023-02-18T04:01:26;101693.53;;;12.55;87.34
53858;BME280;39763;51.188;6.690;2023-02-18T04:02:58;101701.47;;;12.53;88.27
53858;BME280;39763;51.188;6.690;2023-02-18T04:04:29;101700.72;;;12.48;87.95
53858;BME280;39763;51.188;6.690;2023-02-18T04:06:01;101693.78;;;12.46;88.34
53858;BME280;39763;51.188;6.690;2023-02-18T04:07:48;101691.16;;;12.46;89.33
53858;BME280;39763;51.188;6.690;2023-02-18T04:09:20;101695.47;;;12.47;89.35
53858;BME280;39763;51.188;6.690;2023-02-18T04:10:51;101691.03;;;12.49;88.69
53858;BME280;39763;51.188;6.690;2023-02-18T04:12:23;101683.06;;;12.52;89.07
53858;BME280;39763;51.188;6.690;2023-02-18T04:13:55;101684.78;;;12.53;88.38
53858;BME280;39763;51.188;6.690;2023-02-18T04:15:26;101686.50;;;12.55;88.76
53858;BME280;39763;51.188;6.690;2023-02-18T04:16:58;101680.41;;;12.53;87.60
53858;BME280;39763;51.188;6.690;2023-02-18T04:18:29;101683.06;;;12.52;88.60
53858;BME280;39763;51.188;6.690;2023-02-18T04:20:01;101687.53;;;12.48;88.20
53858;BME280;39763;51.188;6.690;2023-02-18T04:21:34;101687.50;;;12.50;88.13
53858;BME280;39763;51.188;6.690;2023-02-18T04:23:07;101693.69;;;12.49;88.17
53858;BME280;39763;51.188;6.690;2023-02-18T04:24:39;101687.69;;;12.44;87.97
53858;BME280;39763;51.188;6.690;2023-02-18T04:26:11;101682.38;;;12.45;88.63
53858;BME280;39763;51.188;6.690;2023-02-18T04:27:42;101678.16;;;12.38;88.91
53858;BME280;39763;51.188;6.690;2023-02-18T04:29:14;101686.13;;;12.35;89.45
53858;BME280;39763;51.188;6.690;2023-02-18T04:30:46;101679.22;;;12.31;89.81
53858;BME280;39763;51.188;6.690;2023-02-18T04:32:18;101684.53;;;12.29;90.10
53858;BME280;39763;51.188;6.690;2023-02-18T04:33:50;101680.16;;;12.28;90.85
53858;BME280;39763;51.188;6.690;2023-02-18T04:35:21;101676.66;;;12.28;90.59
53858;BME280;39763;51.188;6.690;2023-02-18T04:36:53;101683.69;;;12.27;90.75
53858;BME280;39763;51.188;6.690;2023-02-18T04:38:26;101680.22;;;12.25;90.85
53858;BME280;39763;51.188;6.690;2023-02-18T04:39:57;101682.00;;;12.25;90.63
53858;BME280;39763;51.188;6.690;2023-02-18T04:41:29;101684.72;;;12.22;91.00
53858;BME280;39763;51.188;6.690;2023-02-18T04:43:00;101679.50;;;12.19;91.49
53858;BME280;39763;51.188;6.690;2023-02-18T04:44:32;101677.91;;;12.13;92.10
53858;BME280;39763;51.188;6.690;2023-02-18T04:46:03;101678.81;;;12.12;92.13
53858;BME280;39763;51.188;6.690;2023-02-18T04:47:35;101667.44;;;12.10;92.35
53858;BME280;39763;51.188;6.690;2023-02-18T04:49:07;101674.47;;;12.10;93.03
53858;BME280;39763;51.188;6.690;2023-02-18T04:50:38;101668.31;;;12.11;93.45
53858;BME280;39763;51.188;6.690;2023-02-18T04:52:10;101666.66;;;12.07;92.89
53858;BME280;39763;51.188;6.690;2023-02-18T04:53:43;101662.25;;;12.07;93.25
53858;BME280;39763;51.188;6.690;2023-02-18T04:55:14;101670.19;;;12.06;92.78
53858;BME280;39763;51.188;6.690;2023-02-18T04:56:46;101668.41;;;12.06;93.44
53858;BME280;39763;51.188;6.690;2023-02-18T04:58:17;101661.34;;;12.08;93.55
53858;BME280;39763;51.188;6.690;2023-02-18T04:59:49;101663.13;;;12.08;93.33
53858;BME280;39763;51.188;6.690;2023-02-18T05:01:21;101649.00;;;12.10;93.41
53858;BME280;39763;51.188;6.690;2023-02-18T05:02:52;101662.19;;;12.10;93.76
53858;BME280;39763;51.188;6.690;2023-02-18T05:04:24;101658.69;;;12.10;92.86
53858;BME280;39763;51.188;6.690;2023-02-18T05:05:56;101665.69;;;12.11;92.97
53858;BME280;39763;51.188;6.690;2023-02-18T05:07:27;101662.22;;;12.09;93.01
53858;BME280;39763;51.188;6.690;2023-02-18T05:09:00;101656.91;;;12.10;93.26
53858;BME280;39763;51.188;6.690;2023-02-18T05:10:32;101653.44;;;12.08;93.68
53858;BME280;39763;51.188;6.690;2023-02-18T05:12:04;101660.41;;;12.11;93.28
53858;BME280;39763;51.188;6.690;2023-02-18T05:13:35;101654.25;;;12.12;93.42
53858;BME280;39763;51.188;6.690;2023-02-18T05:15:07;101653.38;;;12.11;92.93
53858;BME280;39763;51.188;6.690;2023-02-18T05:16:39;101638.50;;;12.09;93.41
53858;BME280;39763;51.188;6.690;2023-02-18T05:18:10;101649.97;;;12.06;93.66
53858;BME280;39763;51.188;6.690;2023-02-18T05:19:42;101646.41;;;12.09;93.14
53858;BME280;39763;51.188;6.690;2023-02-18T05:21:14;101655.25;;;12.06;93.45
53858;BME280;39763;51.188;6.690;2023-02-18T05:22:45;101651.72;;;12.07;94.08
53858;BME280;39763;51.188;6.690;2023-02-18T05:24:18;101646.44;;;12.07;93.16
53858;BME280;39763;51.188;6.690;2023-02-18T05:25:50;101640.28;;;12.08;93.68
53858;BME280;39763;51.188;6.690;2023-02-18T05:27:21;101641.13;;;12.10;93.68
53858;BME280;39763;51.188;6.690;2023-02-18T05:28:53;101634.13;;;12.09;92.91
53858;BME280;39763;51.188;6.690;2023-02-18T05:30:24;101628.78;;;12.12;93.39
53858;BME280;39763;51.188;6.690;2023-02-18T05:31:56;101616.47;;;12.13;93.34
53858;BME280;39763;51.188;6.690;2023-02-18T05:33:28;101620.94;;;12.09;92.91
53858;BME280;39763;51.188;6.690;2023-02-18T05:34:59;101624.38;;;12.13;92.52
53858;BME280;39763;51.188;6.690;2023-02-18T05:36:31;101619.16;;;12.11;92.67
53858;BME280;39763;51.188;6.690;2023-02-18T05:38:02;101613.88;;;12.11;92.29
53858;BME280;39763;51.188;6.690;2023-02-18T05:39:35;101602.53;;;12.09;92.51
53858;BME280;39763;51.188;6.690;2023-02-18T05:41:07;101596.38;;;12.09;92.47
53858;BME280;39763;51.188;6.690;2023-02-18T05:42:39;101586.84;;;12.03;92.25
53858;BME280;39763;51.188;6.690;2023-02-18T05:44:10;101593.84;;;12.04;92.51
53858;BME280;39763;51.188;6.690;2023-02-18T05:46:00;101573.75;;;12.02;92.71
53858;BME280;39763;51.188;6.690;2023-02-18T05:47:32;101590.41;;;12.02;92.77
53858;BME280;39763;51.188;6.690;2023-02-18T05:49:03;101585.19;;;12.00;92.56
53858;BME280;39763;51.188;6.690;2023-02-18T05:50:35;101587.75;;;12.02;93.36
53858;BME280;39763;51.188;6.690;2023-02-18T05:52:07;101601.03;;;11.99;92.89
53858;BME280;39763;51.188;6.690;2023-02-18T05:53:38;101587.03;;;11.97;93.20
53858;BME280;39763;51.188;6.690;2023-02-18T05:55:11;101587.91;;;11.97;93.74
53858;BME280;39763;51.188;6.690;2023-02-18T05:56:43;101579.09;;;11.98;93.29
53858;BME280;39763;51.188;6.690;2023-02-18T05:58:14;101575.59;;;11.98;93.25
53858;BME280;39763;51.188;6.690;2023-02-18T05:59:47;101572.06;;;11.99;92.73
53858;BME280;39763;51.188;6.690;2023-02-18T06:01:19;101573.81;;;12.00;92.70
53858;BME280;39763;51.188;6.690;2023-02-18T06:02:50;101575.53;;;12.01;92.79
53858;BME280;39763;51.188;6.690;2023-02-18T06:04:22;101580.78;;;12.01;93.03
53858;BME280;39763;51.188;6.690;2023-02-18T06:05:53;101586.78;;;12.06;92.70
53858;BME280;39763;51.188;6.690;2023-02-18T06:07:25;101582.31;;;12.10;92.70
53858;BME280;39763;51.188;6.690;2023-02-18T06:08:57;101579.66;;;12.11;92.38
53858;BME280;39763;51.188;6.690;2023-02-18T06:10:31;101568.09;;;12.17;91.02
53858;BME280;39763;51.188;6.690;2023-02-18T06:12:02;101574.13;;;12.20;91.01
53858;BME280;39763;51.188;6.690;2023-02-18T06:13:34;101579.31;;;12.23;90.37
53858;BME280;39763;51.188;6.690;2023-02-18T06:15:06;101578.53;;;12.20;89.67
53858;BME280;39763;51.188;6.690;2023-02-18T06:16:38;101560.03;;;12.23;89.67
53858;BME280;39763;51.188;6.690;2023-02-18T06:18:09;101574.06;;;12.23;89.17
53858;BME280;39763;51.188;6.690;2023-02-18T06:19:41;101578.38;;;12.26;88.94
53858;BME280;39763;51.188;6.690;2023-02-18T06:21:12;101578.34;;;12.27;89.61
53858;BME280;39763;51.188;6.690;2023-02-18T06:22:44;101582.66;;;12.30;88.35
53858;BME280;39763;51.188;6.690;2023-02-18T06:24:16;101581.78;;;12.31;88.90
53858;BME280;39763;51.188;6.690;2023-02-18T06:25:48;101586.91;;;12.35;88.42
53858;BME280;39763;51.188;6.690;2023-02-18T06:27:20;101575.34;;;12.41;88.65
53858;BME280;39763;51.188;6.690;2023-02-18T06:28:52;101574.41;;;12.44;87.39
53858;BME280;39763;51.188;6.690;2023-02-18T06:30:24;101579.63;;;12.45;86.25
53858;BME280;39763;51.188;6.690;2023-02-18T06:31:55;101568.13;;;12.48;86.10
53858;BME280;39763;51.188;6.690;2023-02-18T06:33:27;101573.38;;;12.48;87.03
53858;BME280;39763;51.188;6.690;2023-02-18T06:34:58;101575.03;;;12.52;86.35
53858;BME280;39763;51.188;6.690;2023-02-18T06:36:30;101576.75;;;12.53;85.90
53858;BME280;39763;51.188;6.690;2023-02-18T06:38:02;101568.75;;;12.57;85.92
53858;BME280;39763;51.188;6.690;2023-02-18T06:39:33;101573.97;;;12.59;85.88
53858;BME280;39763;51.188;6.690;2023-02-18T06:41:06;101566.91;;;12.61;85.34
53858;BME280;39763;51.188;6.690;2023-02-18T06:42:38;101571.16;;;12.65;84.10
53858;BME280;39763;51.188;6.690;2023-02-18T06:44:10;101567.59;;;12.66;84.08
53858;BME280;39763;51.188;6.690;2023-02-18T06:45:42;101571.16;;;12.65;83.85
53858;BME280;39763;51.188;6.690;2023-02-18T06:47:13;101572.88;;;12.66;83.35
53858;BME280;39763;51.188;6.690;2023-02-18T06:48:45;101572.91;;;12.64;83.33
53858;BME280;39763;51.188;6.690;2023-02-18T06:50:16;101572.91;;;12.64;83.25
53858;BME280;39763;51.188;6.690;2023-02-18T06:51:49;101574.59;;;12.67;83.46
53858;BME280;39763;51.188;6.690;2023-02-18T06:53:21;101576.25;;;12.71;83.22
53858;BME280;39763;51.188;6.690;2023-02-18T06:54:53;101574.44;;;12.73;82.57
53858;BME280;39763;51.188;6.690;2023-02-18T06:56:26;101572.75;;;12.70;82.30
53858;BME280;39763;51.188;6.690;2023-02-18T06:57:59;101570.94;;;12.73;82.40
53858;BME280;39763;51.188;6.690;2023-02-18T06:59:30;101576.19;;;12.74;81.74
53858;BME280;39763;51.188;6.690;2023-02-18T07:01:02;101580.53;;;12.75;82.25
53858;BME280;39763;51.188;6.690;2023-02-18T07:02:34;101581.59;;;12.68;81.90
53858;BME280;39763;51.188;6.690;2023-02-18T07:04:05;101588.53;;;12.72;81.77
53858;BME280;39763;51.188;6.690;2023-02-18T07:05:37;101594.59;;;12.76;81.95
53858;BME280;39763;51.188;6.690;2023-02-18T07:07:09;101594.47;;;12.79;81.24
53858;BME280;39763;51.188;6.690;2023-02-18T07:08:40;101591.81;;;12.80;81.95
53858;BME280;39763;51.188;6.690;2023-02-18T07:10:12;101586.31;;;12.88;80.97
53858;BME280;39763;51.188;6.690;2023-02-18T07:11:45;101595.09;;;12.88;80.24
53858;BME280;39763;51.188;6.690;2023-02-18T07:13:16;101599.50;;;12.88;80.39
53858;BME280;39763;51.188;6.690;2023-02-18T07:14:48;101600.34;;;12.90;80.53
53858;BME280;39763;51.188;6.690;2023-02-18T07:16:19;101605.53;;;12.91;79.86
53858;BME280;39763;51.188;6.690;2023-02-18T07:17:51;101602.72;;;12.97;78.89
53858;BME280;39763;51.188;6.690;2023-02-18T07:19:23;101596.63;;;12.95;78.85
53858;BME280;39763;51.188;6.690;2023-02-18T07:20:55;101586.03;;;12.97;79.72
53858;BME280;39763;51.188;6.690;2023-02-18T07:22:26;101577.31;;;12.95;78.54
53858;BME280;39763;51.188;6.690;2023-02-18T07:23:58;101587.94;;;12.92;78.95
53858;BME280;39763;51.188;6.690;2023-02-18T07:25:30;101585.50;;;12.86;79.46
53858;BME280;39763;51.188;6.690;2023-02-18T07:27:03;101590.97;;;12.78;80.03
53858;BME280;39763;51.188;6.690;2023-02-18T07:28:34;101577.72;;;12.81;79.59
53858;BME280;39763;51.188;6.690;2023-02-18T07:30:07;101578.56;;;12.82;80.22
53858;BME280;39763;51.188;6.690;2023-02-18T07:31:38;101583.06;;;12.78;79.87
53858;BME280;39763;51.188;6.690;2023-02-18T07:33:10;101570.91;;;12.74;79.86
53858;BME280;39763;51.188;6.690;2023-02-18T07:34:42;101582.28;;;12.76;80.72
53858;BME280;39763;51.188;6.690;2023-02-18T07:36:13;101583.25;;;12.72;80.64
53858;BME280;39763;51.188;6.690;2023-02-18T07:37:45;101582.31;;;12.75;80.49
53858;BME280;39763;51.188;6.690;2023-02-18T07:39:17;101607.81;;;12.74;80.58
53858;BME280;39763;51.188;6.690;2023-02-18T07:40:51;101604.16;;;12.78;80.91
53858;BME280;39763;51.188;6.690;2023-02-18T07:42:24;101594.50;;;12.77;80.72
53858;BME280;39763;51.188;6.690;2023-02-18T07:43:56;101585.69;;;12.78;80.19
53858;BME280;39763;51.188;6.690;2023-02-18T07:45:27;101587.47;;;12.78;80.23
53858;BME280;39763;51.188;6.690;2023-02-18T07:46:59;101606.66;;;12.83;80.05
53858;BME280;39763;51.188;6.690;2023-02-18T07:48:31;101595.09;;;12.88;79.85
53858;BME280;39763;51.188;6.690;2023-02-18T07:50:03;101605.69;;;12.87;79.07
53858;BME280;39763;51.188;6.690;2023-02-18T07:51:35;101616.28;;;12.85;78.38
53858;BME280;39763;51.188;6.690;2023-02-18T07:53:09;101606.56;;;12.87;79.53
53858;BME280;39763;51.188;6.690;2023-02-18T07:54:41;101604.59;;;12.94;77.50
53858;BME280;39763;51.188;6.690;2023-02-18T07:56:13;101613.34;;;12.94;77.63
53858;BME280;39763;51.188;6.690;2023-02-18T07:57:45;101607.88;;;13.02;76.95
53858;BME280;39763;51.188;6.690;2023-02-18T07:59:27;101622.84;;;13.01;76.51
53858;BME280;39763;51.188;6.690;2023-02-18T08:00:59;101627.16;;;13.04;76.39
53858;BME280;39763;51.188;6.690;2023-02-18T08:02:30;101627.19;;;13.02;76.32
53858;BME280;39763;51.188;6.690;2023-02-18T08:04:02;101625.47;;;13.01;76.22
53858;BME280;39763;51.188;6.690;2023-02-18T08:05:34;101620.13;;;13.04;76.32
53858;BME280;39763;51.188;6.690;2023-02-18T08:07:06;101605.19;;;13.03;76.42
53858;BME280;39763;51.188;6.690;2023-02-18T08:08:37;101624.59;;;13.01;76.61
53858;BME280;39763;51.188;6.690;2023-02-18T08:10:09;101634.28;;;13.00;76.40
53858;BME280;39763;51.188;6.690;2023-02-18T08:11:41;101631.81;;;12.94;76.35
53858;BME280;39763;51.188;6.690;2023-02-18T08:13:14;101636.34;;;12.91;77.18